Zim Vancouver — A8LK5 — position and weather

sailwx.info

Track history (hours):
 
Tides and Currents Weather Stations Pressure Air Temp Water Temp Dewpoint Dewpoint Depression Visibility Wind Speed Wind Dir Waves Ship Positions

Zim Vancouver

Last reported at 2014-Aug-20 00:15 UTC. Time now 2014-Sep-02 02:00 UTC.
Position N 01°13' E 103°54'.
Warning: this ship's position is 13 days out of date.

; draft 11.8 m.

Type: Ship (hazmat cat A). MMSI: 636013214.

Date/timePositionNaut miles runAvg speedWind from/ knotsBaromVisibWave heightAir tempDewpointWater temp
2014-Aug-20 00:15N 01°13' E 103°54'  
2014-Aug-15 21:12N 22°19' E 114°05'1112.4
2014-Aug-15 20:19N 22°23' E 113°54'5 6.5
2014-Aug-15 19:33N 22°27' E 113°52'5 4.7
2014-Aug-15 18:33N 22°32' E 113°51'0 0.0
2014-Aug-15 17:33N 22°32' E 113°51'0 0.0
2014-Aug-15 16:33N 22°32' E 113°51'0 0.0
2014-Aug-15 15:33N 22°32' E 113°51'0 0.0
2014-Aug-15 14:33N 22°32' E 113°51'0 0.0
2014-Aug-15 13:33N 22°32' E 113°51'0 0.0
2014-Aug-15 12:33N 22°32' E 113°51'0 0.0
2014-Aug-15 11:33N 22°32' E 113°51'0 0.0
2014-Aug-15 10:33N 22°32' E 113°51'0 0.0
2014-Aug-15 09:33N 22°32' E 113°51'0 0.0
2014-Aug-15 08:33N 22°32' E 113°51'0 0.0
2014-Aug-15 07:33N 22°32' E 113°51'0 0.0
2014-Aug-15 06:32N 22°32' E 113°51'0 0.0
2014-Aug-15 05:30N 22°32' E 113°51'5 5.5
2014-Aug-15 04:33N 22°27' E 113°53'7 6.3
2014-Aug-15 03:24N 22°21' E 113°57'8 9.5
2014-Aug-15 02:31N 22°18' E 114°06'22614.6
2014-Aug-14 11:06N 23°35' E 117°56'917.3
2014-Aug-14 10:33N 23°41' E 118°04'1817.3
2014-Aug-14 09:30N 23°53' E 118°19'1816.6
2014-Aug-14 08:25N 24°04' E 118°35'2117.9
2014-Aug-14 07:15N 24°18' E 118°52'42516.5
2014-Aug-13 05:25N 30°22' E 122°58'1517.6
2014-Aug-13 04:33N 30°29' E 122°42'1615.8
2014-Aug-13 03:33N 30°32' E 122°24'1110.6
2014-Aug-13 02:33N 30°33' E 122°12'9 8.6
2014-Aug-13 01:33N 30°38' E 122°03'0 0.0
2014-Aug-13 00:30N 30°38' E 122°03'0 0.0
2014-Aug-12 23:33N 30°38' E 122°03'0 0.0
2014-Aug-12 22:33N 30°38' E 122°03'0 0.0
2014-Aug-12 21:31N 30°38' E 122°03'0 0.0
2014-Aug-12 20:33N 30°38' E 122°03'0 0.0
2014-Aug-12 19:32N 30°38' E 122°03'0 0.0
2014-Aug-12 18:33N 30°38' E 122°03'0 0.0
2014-Aug-12 17:33N 30°38' E 122°03'0 0.0
2014-Aug-12 16:33N 30°38' E 122°03'0 0.5
2014-Aug-12 15:33N 30°38' E 122°03'9 9.2
2014-Aug-12 14:32N 30°34' E 122°13'8 7.9
2014-Aug-12 13:33N 30°33' E 122°22'3 2.6
2014-Aug-12 12:33N 30°32' E 122°25'9 8.9
2014-Aug-12 11:33N 30°30' E 122°35'9 8.9
2014-Aug-12 10:33N 30°26' E 122°44'1 0.7
2014-Aug-12 09:34N 30°25' E 122°44'0 0.0
2014-Aug-12 08:33N 30°25' E 122°44'0 0.1
2014-Aug-12 07:33N 30°26' E 122°44'0 0.0
2014-Aug-12 06:33N 30°26' E 122°44'0 0.1
2014-Aug-12 05:33N 30°26' E 122°44'0 0.1
2014-Aug-12 04:33N 30°26' E 122°44'0 0.1
2014-Aug-12 03:33N 30°26' E 122°44'0 0.1
2014-Aug-12 02:33N 30°26' E 122°44'0 0.1
2014-Aug-12 01:33N 30°26' E 122°44'0 0.1
2014-Aug-12 00:33N 30°26' E 122°44'0 0.1
2014-Aug-11 23:33N 30°25' E 122°44'0 0.1
2014-Aug-11 22:33N 30°25' E 122°44'0 0.1
2014-Aug-11 21:33N 30°25' E 122°44'0 0.0
2014-Aug-11 20:33N 30°25' E 122°44'0 0.1
2014-Aug-11 19:33N 30°26' E 122°44'0 0.0
2014-Aug-11 18:33N 30°26' E 122°44'0 0.1
2014-Aug-11 17:33N 30°26' E 122°44'0 0.1
2014-Aug-11 16:31N 30°26' E 122°44'0 0.1
2014-Aug-11 15:33N 30°26' E 122°44'0 0.1
2014-Aug-11 14:33N 30°26' E 122°44'0 0.0
2014-Aug-11 13:33N 30°26' E 122°44'0 0.1
2014-Aug-11 12:33N 30°26' E 122°44'0 0.1
2014-Aug-11 11:33N 30°26' E 122°44'0 0.1
2014-Aug-11 10:33N 30°25' E 122°44'0 0.1
2014-Aug-11 09:33N 30°25' E 122°44'0 0.1
2014-Aug-11 08:33N 30°26' E 122°44'0 0.1
2014-Aug-11 07:33N 30°26' E 122°44'0 0.0
2014-Aug-11 06:33N 30°26' E 122°44'0 0.0
2014-Aug-11 05:33N 30°26' E 122°44'0 0.1
2014-Aug-11 04:33N 30°26' E 122°44'0 0.1
2014-Aug-11 03:33N 30°26' E 122°44'0 0.1
2014-Aug-11 02:32N 30°26' E 122°44'0 0.1
2014-Aug-11 01:33N 30°26' E 122°44'0 0.0
2014-Aug-11 00:33N 30°26' E 122°44'2 1.6
2014-Aug-10 23:33N 30°26' E 122°46'1010.1
2014-Aug-10 22:33N 30°21' E 122°56'28 8.5
2014-Aug-10 19:16N 29°55' E 122°44'810.7
2014-Aug-10 18:33N 29°49' E 122°38'1110.6
2014-Aug-10 17:33N 29°45' E 122°27'1111.3
2014-Aug-10 16:33N 29°48' E 122°14'1111.1
2014-Aug-10 15:33N 29°54' E 122°03'0 0.5
2014-Aug-10 14:33N 29°53' E 122°03'0 0.0
2014-Aug-10 13:34N 29°53' E 122°03'0 0.0
2014-Aug-10 12:33N 29°53' E 122°03'0 0.0
2014-Aug-10 11:33N 29°53' E 122°03'0 0.0
2014-Aug-10 10:34N 29°53' E 122°03'0 0.0
2014-Aug-10 09:33N 29°53' E 122°03'0 0.0
2014-Aug-10 08:33N 29°53' E 122°03'0 0.0
2014-Aug-10 07:34N 29°53' E 122°03'0 0.0
2014-Aug-10 06:33N 29°53' E 122°03'0 0.0
2014-Aug-10 05:33N 29°53' E 122°03'0 0.0
2014-Aug-10 04:33N 29°53' E 122°03'0 0.0
2014-Aug-10 03:33N 29°53' E 122°03'1 0.6
2014-Aug-10 02:33N 29°54' E 122°04'9 8.8
2014-Aug-10 01:33N 29°50' E 122°13'1010.3
2014-Aug-10 00:34N 29°44' E 122°23'  
Track history (hours):
 
Tides and Currents Weather Stations Pressure Air Temp Water Temp Dewpoint Dewpoint Depression Visibility Wind Speed Wind Dir Waves Ship Positions

Zim Vancouver

Last reported at 2014-Aug-20 00:15 UTC. Time now 2014-Sep-02 02:00 UTC.
Position N 01°13' E 103°54'.
Warning: this ship's position is 13 days out of date.

; draft 11.8 m.

Type: Ship (hazmat cat A). MMSI: 636013214.

Date/timePositionNaut miles runAvg speedWind from/ knotsBaromVisibWave heightAir tempDewpointWater temp
2014-Aug-20 00:15N 01°13' E 103°54'  
2014-Aug-15 21:12N 22°19' E 114°05'1112.4
2014-Aug-15 20:19N 22°23' E 113°54'5 6.5
2014-Aug-15 19:33N 22°27' E 113°52'5 4.7
2014-Aug-15 18:33N 22°32' E 113°51'0 0.0
2014-Aug-15 17:33N 22°32' E 113°51'0 0.0
2014-Aug-15 16:33N 22°32' E 113°51'0 0.0
2014-Aug-15 15:33N 22°32' E 113°51'0 0.0
2014-Aug-15 14:33N 22°32' E 113°51'0 0.0
2014-Aug-15 13:33N 22°32' E 113°51'0 0.0
2014-Aug-15 12:33N 22°32' E 113°51'0 0.0
2014-Aug-15 11:33N 22°32' E 113°51'0 0.0
2014-Aug-15 10:33N 22°32' E 113°51'0 0.0
2014-Aug-15 09:33N 22°32' E 113°51'0 0.0
2014-Aug-15 08:33N 22°32' E 113°51'0 0.0
2014-Aug-15 07:33N 22°32' E 113°51'0 0.0
2014-Aug-15 06:32N 22°32' E 113°51'0 0.0
2014-Aug-15 05:30N 22°32' E 113°51'5 5.5
2014-Aug-15 04:33N 22°27' E 113°53'7 6.3
2014-Aug-15 03:24N 22°21' E 113°57'8 9.5
2014-Aug-15 02:31N 22°18' E 114°06'22614.6
2014-Aug-14 11:06N 23°35' E 117°56'917.3
2014-Aug-14 10:33N 23°41' E 118°04'1817.3
2014-Aug-14 09:30N 23°53' E 118°19'1816.6
2014-Aug-14 08:25N 24°04' E 118°35'2117.9
2014-Aug-14 07:15N 24°18' E 118°52'42516.5
2014-Aug-13 05:25N 30°22' E 122°58'1517.6
2014-Aug-13 04:33N 30°29' E 122°42'1615.8
2014-Aug-13 03:33N 30°32' E 122°24'1110.6
2014-Aug-13 02:33N 30°33' E 122°12'9 8.6
2014-Aug-13 01:33N 30°38' E 122°03'0 0.0
2014-Aug-13 00:30N 30°38' E 122°03'0 0.0
2014-Aug-12 23:33N 30°38' E 122°03'0 0.0
2014-Aug-12 22:33N 30°38' E 122°03'0 0.0
2014-Aug-12 21:31N 30°38' E 122°03'0 0.0
2014-Aug-12 20:33N 30°38' E 122°03'0 0.0
2014-Aug-12 19:32N 30°38' E 122°03'0 0.0
2014-Aug-12 18:33N 30°38' E 122°03'0 0.0
2014-Aug-12 17:33N 30°38' E 122°03'0 0.0
2014-Aug-12 16:33N 30°38' E 122°03'0 0.5
2014-Aug-12 15:33N 30°38' E 122°03'9 9.2
2014-Aug-12 14:32N 30°34' E 122°13'8 7.9
2014-Aug-12 13:33N 30°33' E 122°22'3 2.6
2014-Aug-12 12:33N 30°32' E 122°25'9 8.9
2014-Aug-12 11:33N 30°30' E 122°35'9 8.9
2014-Aug-12 10:33N 30°26' E 122°44'1 0.7
2014-Aug-12 09:34N 30°25' E 122°44'0 0.0
2014-Aug-12 08:33N 30°25' E 122°44'0 0.1
2014-Aug-12 07:33N 30°26' E 122°44'0 0.0
2014-Aug-12 06:33N 30°26' E 122°44'0 0.1
2014-Aug-12 05:33N 30°26' E 122°44'0 0.1
2014-Aug-12 04:33N 30°26' E 122°44'0 0.1
2014-Aug-12 03:33N 30°26' E 122°44'0 0.1
2014-Aug-12 02:33N 30°26' E 122°44'0 0.1
2014-Aug-12 01:33N 30°26' E 122°44'0 0.1
2014-Aug-12 00:33N 30°26' E 122°44'0 0.1
2014-Aug-11 23:33N 30°25' E 122°44'0 0.1
2014-Aug-11 22:33N 30°25' E 122°44'0 0.1
2014-Aug-11 21:33N 30°25' E 122°44'0 0.0
2014-Aug-11 20:33N 30°25' E 122°44'0 0.1
2014-Aug-11 19:33N 30°26' E 122°44'0 0.0
2014-Aug-11 18:33N 30°26' E 122°44'0 0.1
2014-Aug-11 17:33N 30°26' E 122°44'0 0.1
2014-Aug-11 16:31N 30°26' E 122°44'0 0.1
2014-Aug-11 15:33N 30°26' E 122°44'0 0.1
2014-Aug-11 14:33N 30°26' E 122°44'0 0.0
2014-Aug-11 13:33N 30°26' E 122°44'0 0.1
2014-Aug-11 12:33N 30°26' E 122°44'0 0.1
2014-Aug-11 11:33N 30°26' E 122°44'0 0.1
2014-Aug-11 10:33N 30°25' E 122°44'0 0.1
2014-Aug-11 09:33N 30°25' E 122°44'0 0.1
2014-Aug-11 08:33N 30°26' E 122°44'0 0.1
2014-Aug-11 07:33N 30°26' E 122°44'0 0.0
2014-Aug-11 06:33N 30°26' E 122°44'0 0.0
2014-Aug-11 05:33N 30°26' E 122°44'0 0.1
2014-Aug-11 04:33N 30°26' E 122°44'0 0.1
2014-Aug-11 03:33N 30°26' E 122°44'0 0.1
2014-Aug-11 02:32N 30°26' E 122°44'0 0.1
2014-Aug-11 01:33N 30°26' E 122°44'0 0.0
2014-Aug-11 00:33N 30°26' E 122°44'2 1.6
2014-Aug-10 23:33N 30°26' E 122°46'1010.1
2014-Aug-10 22:33N 30°21' E 122°56'28 8.5
2014-Aug-10 19:16N 29°55' E 122°44'810.7
2014-Aug-10 18:33N 29°49' E 122°38'1110.6
2014-Aug-10 17:33N 29°45' E 122°27'1111.3
2014-Aug-10 16:33N 29°48' E 122°14'1111.1
2014-Aug-10 15:33N 29°54' E 122°03'0 0.5
2014-Aug-10 14:33N 29°53' E 122°03'0 0.0
2014-Aug-10 13:34N 29°53' E 122°03'0 0.0
2014-Aug-10 12:33N 29°53' E 122°03'0 0.0
2014-Aug-10 11:33N 29°53' E 122°03'0 0.0
2014-Aug-10 10:34N 29°53' E 122°03'0 0.0
2014-Aug-10 09:33N 29°53' E 122°03'0 0.0
2014-Aug-10 08:33N 29°53' E 122°03'0 0.0
2014-Aug-10 07:34N 29°53' E 122°03'0 0.0
2014-Aug-10 06:33N 29°53' E 122°03'0 0.0
2014-Aug-10 05:33N 29°53' E 122°03'0 0.0
2014-Aug-10 04:33N 29°53' E 122°03'0 0.0
2014-Aug-10 03:33N 29°53' E 122°03'1 0.6
2014-Aug-10 02:33N 29°54' E 122°04'9 8.8
2014-Aug-10 01:33N 29°50' E 122°13'1010.3
2014-Aug-10 00:34N 29°44' E 122°23'  

Dump ship's entire track history